createdAt,value
2022-08-01T00:01:39.306Z,23.40
2022-08-01T00:04:08.689Z,23.40
2022-08-01T00:06:37.790Z,23.40
2022-08-01T00:09:06.592Z,23.40
2022-08-01T00:11:35.827Z,23.40
2022-08-01T00:14:02.589Z,23.30
2022-08-01T00:16:31.545Z,23.30
2022-08-01T00:19:00.880Z,23.30
2022-08-01T00:21:30.321Z,23.20
2022-08-01T00:23:57.032Z,23.20
2022-08-01T00:26:23.865Z,23.20
2022-08-01T00:28:50.506Z,23.20
2022-08-01T00:31:17.280Z,23.20
2022-08-01T00:33:43.976Z,23.20
2022-08-01T00:36:10.716Z,23.20
2022-08-01T00:38:39.535Z,23.20
2022-08-01T00:41:06.386Z,23.20
2022-08-01T00:43:33.074Z,23.20
2022-08-01T00:45:59.754Z,23.20
2022-08-01T00:48:28.651Z,23.20
2022-08-01T00:50:58.028Z,23.20
2022-08-01T00:53:26.083Z,23.10
2022-08-01T00:55:52.755Z,23.20
2022-08-01T00:58:19.424Z,23.20
2022-08-01T01:00:52.895Z,23.20
2022-08-01T01:03:49.428Z,23.10
2022-08-01T01:06:35.338Z,23.00
2022-08-01T01:09:38.379Z,22.90
2022-08-01T01:12:25.719Z,22.80
2022-08-01T01:15:15.169Z,22.80
2022-08-01T01:17:50.096Z,22.70
2022-08-01T01:20:21.693Z,22.70
2022-08-01T01:22:56.530Z,22.70
2022-08-01T01:25:38.204Z,22.70
2022-08-01T01:28:13.921Z,22.70
2022-08-01T01:30:48.208Z,22.60
2022-08-01T01:33:19.800Z,22.60
2022-08-01T01:35:54.707Z,22.60
2022-08-01T01:38:25.111Z,22.70
2022-08-01T01:40:54.193Z,22.70
2022-08-01T01:43:28.946Z,22.60
2022-08-01T01:46:01.794Z,22.60
2022-08-01T01:48:36.867Z,22.50
2022-08-01T01:51:05.292Z,22.50
2022-08-01T01:53:34.838Z,22.50
2022-08-01T01:56:05.287Z,22.50
2022-08-01T01:58:38.529Z,22.50
2022-08-01T02:01:05.767Z,22.50
2022-08-01T02:03:45.645Z,22.50
2022-08-01T02:06:15.645Z,22.50
2022-08-01T02:08:47.888Z,22.50
2022-08-01T02:11:23.423Z,22.50
2022-08-01T02:14:04.605Z,22.50
2022-08-01T02:16:38.605Z,22.40
2022-08-01T02:19:07.514Z,22.40
2022-08-01T02:21:50.113Z,22.30
2022-08-01T02:24:30.544Z,22.30
2022-08-01T02:27:04.669Z,22.30
2022-08-01T02:29:46.039Z,22.30
2022-08-01T02:32:20.567Z,22.20
2022-08-01T02:34:52.007Z,22.20
2022-08-01T02:37:21.954Z,22.10
2022-08-01T02:39:51.907Z,22.20
2022-08-01T02:42:19.950Z,22.10
2022-08-01T02:44:52.994Z,22.10
2022-08-01T02:47:21.489Z,22.10
2022-08-01T02:49:54.952Z,22.10
2022-08-01T02:52:24.157Z,22.10
2022-08-01T02:54:56.460Z,22.10
2022-08-01T02:57:36.134Z,22.00
2022-08-01T03:00:15.846Z,22.00
2022-08-01T03:02:49.322Z,22.10
2022-08-01T03:05:18.084Z,22.00
2022-08-01T03:07:48.792Z,22.00
2022-08-01T03:10:17.760Z,22.00
2022-08-01T03:12:48.219Z,22.00
2022-08-01T03:15:16.177Z,22.00
2022-08-01T03:17:45.146Z,22.00
2022-08-01T03:20:14.407Z,21.90
2022-08-01T03:22:45.413Z,21.90
2022-08-01T03:25:14.727Z,22.00
2022-08-01T03:27:43.247Z,21.90
2022-08-01T03:30:13.609Z,21.90
2022-08-01T03:32:40.562Z,21.90
2022-08-01T03:35:09.898Z,21.80
2022-08-01T03:38:13.171Z,21.80
2022-08-01T03:40:36.862Z,21.80
2022-08-01T03:43:11.730Z,21.80
2022-08-01T03:45:46.850Z,21.80
2022-08-01T03:48:22.123Z,21.70
2022-08-01T03:50:53.298Z,21.70
2022-08-01T03:53:25.736Z,21.70
2022-08-01T03:55:53.838Z,21.80
2022-08-01T03:58:23.421Z,21.80
2022-08-01T04:00:52.509Z,21.80
2022-08-01T04:03:19.540Z,21.80
2022-08-01T04:05:48.519Z,21.70
2022-08-01T04:08:15.239Z,21.70
2022-08-01T04:10:44.774Z,21.70
2022-08-01T04:13:11.429Z,21.70
2022-08-01T04:15:38.199Z,21.70
2022-08-01T04:18:07.737Z,21.70
2022-08-01T04:20:34.469Z,21.70
2022-08-01T04:23:03.291Z,21.70
2022-08-01T04:25:37.284Z,21.70
2022-08-01T04:28:08.542Z,21.70
2022-08-01T04:30:40.723Z,21.70
2022-08-01T04:33:12.520Z,21.70
2022-08-01T04:36:03.566Z,21.70
2022-08-01T04:38:31.532Z,21.70
2022-08-01T04:41:08.440Z,21.70
2022-08-01T04:43:37.566Z,21.70
2022-08-01T04:46:05.002Z,21.60
2022-08-01T04:48:33.145Z,21.70
2022-08-01T04:51:00.113Z,21.70
2022-08-01T04:53:27.592Z,21.70
2022-08-01T04:55:56.645Z,21.60
2022-08-01T04:58:23.359Z,21.60
2022-08-01T05:00:50.271Z,21.60
2022-08-01T05:03:17.369Z,21.70
2022-08-01T05:05:46.317Z,21.70
2022-08-01T05:08:13.019Z,21.70
2022-08-01T05:10:42.158Z,21.70
2022-08-01T05:13:09.542Z,21.70
2022-08-01T05:15:37.726Z,21.70
2022-08-01T05:18:04.818Z,21.70
2022-08-01T05:20:35.940Z,21.70
2022-08-01T05:23:05.099Z,21.70
2022-08-01T05:25:56.296Z,21.70
2022-08-01T05:28:23.464Z,21.70
2022-08-01T05:30:50.203Z,21.70
2022-08-01T05:33:18.107Z,21.70
2022-08-01T05:35:48.222Z,21.70
2022-08-01T05:38:19.305Z,21.70
2022-08-01T05:40:46.077Z,21.60
2022-08-01T05:43:12.977Z,21.60
2022-08-01T05:45:39.723Z,21.60
2022-08-01T05:48:06.559Z,21.50
2022-08-01T05:50:34.658Z,21.50
2022-08-01T05:53:01.388Z,21.40
2022-08-01T05:55:28.085Z,21.40
2022-08-01T05:57:54.790Z,21.40
2022-08-01T06:00:21.618Z,21.40
2022-08-01T06:02:53.252Z,21.40
2022-08-01T06:05:20.012Z,21.50
2022-08-01T06:07:48.875Z,21.50
2022-08-01T06:10:15.909Z,21.50
2022-08-01T06:12:43.516Z,21.40
2022-08-01T06:15:10.652Z,21.50
2022-08-01T06:17:40.565Z,21.50
2022-08-01T06:20:08.044Z,21.50
2022-08-01T06:22:37.347Z,21.60
2022-08-01T06:25:05.380Z,21.60
2022-08-01T06:27:34.755Z,21.60
2022-08-01T06:30:01.477Z,21.60
2022-08-01T06:32:30.719Z,21.60
2022-08-01T06:34:57.500Z,21.70
2022-08-01T06:37:24.386Z,21.70
2022-08-01T06:39:53.988Z,21.70
2022-08-01T06:42:20.724Z,21.70
2022-08-01T06:44:49.634Z,21.70
2022-08-01T06:47:18.658Z,21.60
2022-08-01T06:49:45.372Z,21.60
2022-08-01T06:52:12.118Z,21.70
2022-08-01T06:54:43.251Z,21.80
2022-08-01T06:57:09.931Z,21.80
2022-08-01T06:59:36.592Z,21.80
2022-08-01T07:02:10.336Z,21.80
2022-08-01T07:04:41.816Z,21.90
2022-08-01T07:07:11.292Z,22.00
2022-08-01T07:09:41.931Z,22.00
2022-08-01T07:12:08.903Z,22.10
2022-08-01T07:14:35.888Z,22.20
2022-08-01T07:17:05.165Z,22.30
2022-08-01T07:19:36.506Z,22.40
2022-08-01T07:22:07.695Z,22.50
2022-08-01T07:24:34.737Z,22.60
2022-08-01T07:27:24.137Z,22.60
2022-08-01T07:29:53.957Z,22.90
2022-08-01T07:32:20.696Z,23.00
2022-08-01T07:34:47.467Z,23.30
2022-08-01T07:37:14.417Z,23.60
2022-08-01T07:39:45.810Z,23.70
2022-08-01T07:42:14.880Z,23.70
2022-08-01T07:44:41.738Z,23.70
2022-08-01T07:47:08.645Z,23.80
2022-08-01T07:49:40.041Z,23.70
2022-08-01T07:52:07.966Z,23.70
2022-08-01T07:54:35.328Z,23.70
2022-08-01T07:57:06.430Z,23.70
2022-08-01T07:59:33.446Z,23.60
2022-08-01T08:02:00.737Z,23.60
2022-08-01T08:04:30.262Z,23.70
2022-08-01T08:06:57.000Z,23.80
2022-08-01T08:09:23.993Z,23.90
2022-08-01T08:11:50.805Z,23.90
2022-08-01T08:14:18.170Z,24.00
2022-08-01T08:16:45.364Z,24.10
2022-08-01T08:19:12.922Z,24.10
2022-08-01T08:21:41.858Z,24.30
2022-08-01T08:24:25.864Z,24.50
2022-08-01T08:26:58.558Z,24.70
2022-08-01T08:29:27.167Z,25.00
2022-08-01T08:31:55.807Z,25.10
2022-08-01T08:34:24.192Z,25.10
2022-08-01T08:36:53.969Z,25.20
2022-08-01T08:39:30.502Z,25.20
2022-08-01T08:42:00.068Z,25.10
2022-08-01T08:44:27.067Z,25.30
2022-08-01T08:46:56.763Z,25.50
2022-08-01T08:49:35.467Z,25.60
2022-08-01T08:52:08.931Z,25.90
2022-08-01T08:54:38.449Z,25.90
2022-08-01T08:57:05.910Z,25.90
2022-08-01T08:59:33.141Z,25.90
2022-08-01T09:02:00.411Z,26.00
2022-08-01T09:04:28.162Z,26.10
2022-08-01T09:06:57.530Z,26.20
2022-08-01T09:09:24.857Z,26.20
2022-08-01T09:11:58.146Z,26.10
2022-08-01T09:14:30.763Z,26.10
2022-08-01T09:17:07.559Z,26.20
2022-08-01T09:19:41.615Z,26.20
2022-08-01T09:22:13.655Z,26.10
2022-08-01T09:24:41.464Z,26.10
2022-08-01T09:27:25.065Z,26.10
2022-08-01T09:30:00.841Z,26.00
2022-08-01T09:32:35.832Z,26.10
2022-08-01T09:35:43.833Z,26.20
2022-08-01T09:38:29.497Z,26.30
2022-08-01T09:41:01.869Z,26.40
2022-08-01T09:43:32.083Z,26.50
2022-08-01T09:46:02.507Z,26.50
2022-08-01T09:48:33.608Z,26.40
2022-08-01T09:51:07.126Z,26.30
2022-08-01T09:53:51.822Z,26.30
2022-08-01T09:56:22.058Z,26.20
2022-08-01T09:59:01.618Z,26.30
2022-08-01T10:01:42.165Z,26.30
2022-08-01T10:04:15.831Z,26.30
2022-08-01T10:06:53.413Z,26.30
2022-08-01T10:09:40.570Z,26.30
2022-08-01T10:12:09.072Z,26.20
2022-08-01T10:14:42.581Z,26.20
2022-08-01T10:17:18.569Z,26.20
2022-08-01T10:19:47.804Z,26.20
2022-08-01T10:22:19.180Z,26.30
2022-08-01T10:24:57.018Z,26.20
2022-08-01T10:27:38.474Z,26.30
2022-08-01T10:30:20.087Z,26.40
2022-08-01T10:32:54.822Z,26.50
2022-08-01T10:35:38.020Z,26.50
2022-08-01T10:38:13.609Z,26.60
2022-08-01T10:40:45.037Z,26.70
2022-08-01T10:43:21.470Z,26.80
2022-08-01T10:45:50.625Z,26.80
2022-08-01T10:48:43.501Z,26.70
2022-08-01T10:51:17.850Z,26.70
2022-08-01T10:53:54.716Z,26.80
2022-08-01T10:56:38.930Z,26.80
2022-08-01T10:59:11.737Z,26.70
2022-08-01T11:01:44.872Z,26.70
2022-08-01T11:04:17.890Z,26.60
2022-08-01T11:06:55.882Z,26.60
2022-08-01T11:09:37.226Z,26.70
2022-08-01T11:12:24.877Z,26.70
2022-08-01T11:15:02.958Z,26.70
2022-08-01T11:17:48.348Z,26.70
2022-08-01T11:20:21.672Z,26.70
2022-08-01T11:23:03.117Z,26.70
2022-08-01T11:26:06.324Z,26.60
2022-08-01T11:28:36.546Z,26.70
2022-08-01T11:31:10.905Z,26.60
2022-08-01T11:33:46.895Z,26.60
2022-08-01T11:36:14.184Z,26.70
2022-08-01T11:38:43.437Z,26.70
2022-08-01T11:41:15.198Z,26.70
2022-08-01T11:44:07.940Z,26.90
2022-08-01T11:46:52.207Z,27.00
2022-08-01T11:49:29.153Z,27.10
2022-08-01T11:52:09.259Z,27.20
2022-08-01T11:54:40.847Z,27.20
2022-08-01T11:57:10.579Z,27.20
2022-08-01T11:59:57.975Z,27.20
2022-08-01T12:02:33.198Z,27.20
2022-08-01T12:05:05.089Z,27.10
2022-08-01T12:07:34.003Z,27.10
2022-08-01T12:10:06.013Z,27.10
2022-08-01T12:12:36.684Z,27.00
2022-08-01T12:15:11.919Z,27.00
2022-08-01T12:18:09.262Z,27.00
2022-08-01T12:20:56.136Z,27.10
2022-08-01T12:23:23.784Z,27.10
2022-08-01T12:25:54.518Z,27.10
2022-08-01T12:28:21.495Z,27.10
2022-08-01T12:30:51.656Z,27.00
2022-08-01T12:33:22.055Z,27.00
2022-08-01T12:35:49.670Z,27.00
2022-08-01T12:38:23.993Z,27.00
2022-08-01T12:40:53.536Z,26.90
2022-08-01T12:43:26.775Z,27.00
2022-08-01T12:46:02.912Z,27.00
2022-08-01T12:48:32.259Z,27.10
2022-08-01T12:51:01.367Z,27.10
2022-08-01T12:53:40.180Z,27.10
2022-08-01T12:56:11.398Z,27.10
2022-08-01T12:58:40.830Z,27.10
2022-08-01T13:01:13.956Z,27.10
2022-08-01T13:03:41.182Z,27.10
2022-08-01T13:06:17.161Z,27.10
2022-08-01T13:08:47.960Z,27.20
2022-08-01T13:11:20.783Z,27.20
2022-08-01T13:13:51.758Z,27.20
2022-08-01T13:16:30.627Z,27.20
2022-08-01T13:19:06.281Z,27.20
2022-08-01T13:21:52.810Z,27.30
2022-08-01T13:24:26.779Z,27.30
2022-08-01T13:26:59.471Z,27.40
2022-08-01T13:29:42.322Z,27.40
2022-08-01T13:32:23.352Z,27.50
2022-08-01T13:35:04.468Z,27.50
2022-08-01T13:37:31.260Z,27.50
2022-08-01T13:39:59.223Z,27.60
2022-08-01T13:42:30.145Z,27.50
2022-08-01T13:44:56.920Z,27.50
2022-08-01T13:47:31.801Z,27.50
2022-08-01T13:50:01.599Z,27.50
2022-08-01T13:52:29.057Z,27.50
2022-08-01T13:54:55.822Z,27.60
2022-08-01T13:57:25.047Z,27.60
2022-08-01T13:59:52.522Z,27.60
2022-08-01T14:02:24.474Z,27.70
2022-08-01T14:04:53.433Z,27.70
2022-08-01T14:07:22.627Z,27.70
2022-08-01T14:10:04.437Z,27.70
2022-08-01T14:12:36.287Z,27.70
2022-08-01T14:15:03.082Z,27.60
2022-08-01T14:17:29.784Z,27.60
2022-08-01T14:20:00.297Z,27.70
2022-08-01T14:22:29.443Z,27.70
2022-08-01T14:25:00.807Z,27.80
2022-08-01T14:27:31.778Z,27.80
2022-08-01T14:30:02.543Z,27.90
2022-08-01T14:32:30.294Z,27.90
2022-08-01T14:34:59.623Z,27.90
2022-08-01T14:37:28.735Z,28.00
2022-08-01T14:39:57.252Z,27.90
2022-08-01T14:42:28.015Z,27.90
2022-08-01T14:44:54.757Z,27.90
2022-08-01T14:47:23.878Z,27.90
2022-08-01T14:49:51.503Z,27.90
2022-08-01T14:52:18.446Z,27.90
2022-08-01T14:54:47.437Z,27.90
2022-08-01T14:57:14.318Z,27.80
2022-08-01T14:59:41.013Z,27.80
2022-08-01T15:02:10.748Z,27.80
2022-08-01T15:04:39.925Z,27.80
2022-08-01T15:07:06.664Z,27.70
2022-08-01T15:09:33.377Z,27.80
2022-08-01T15:12:00.574Z,27.80
2022-08-01T15:14:45.886Z,27.80
2022-08-01T15:17:13.190Z,27.80
2022-08-01T15:19:42.505Z,27.80
2022-08-01T15:22:10.007Z,27.70
2022-08-01T15:24:38.058Z,27.60
2022-08-01T15:27:05.644Z,27.60
2022-08-01T15:29:32.830Z,27.60
2022-08-01T15:31:59.852Z,27.50
2022-08-01T15:34:28.940Z,27.50
2022-08-01T15:36:55.877Z,27.60
2022-08-01T15:39:24.970Z,27.60
2022-08-01T15:41:52.139Z,27.60
2022-08-01T15:44:21.082Z,27.50
2022-08-01T15:46:48.976Z,27.50
2022-08-01T15:49:16.232Z,27.40
2022-08-01T15:51:47.738Z,27.40
2022-08-01T15:54:14.986Z,27.40
2022-08-01T15:56:44.086Z,27.40
2022-08-01T15:59:13.379Z,27.30
2022-08-01T16:01:40.878Z,27.30
2022-08-01T16:04:10.818Z,27.40
2022-08-01T16:06:37.730Z,27.40
2022-08-01T16:09:18.572Z,27.40
2022-08-01T16:11:51.014Z,27.40
2022-08-01T16:14:22.806Z,27.40
2022-08-01T16:16:51.908Z,27.30
2022-08-01T16:19:19.502Z,27.30
2022-08-01T16:21:47.813Z,27.20
2022-08-01T16:24:17.054Z,27.20
2022-08-01T16:26:46.434Z,27.20
2022-08-01T16:29:15.308Z,27.20
2022-08-01T16:31:53.286Z,27.20
2022-08-01T16:34:35.864Z,27.20
2022-08-01T16:37:04.249Z,27.30
2022-08-01T16:39:35.252Z,27.30
2022-08-01T16:42:02.090Z,27.40
2022-08-01T16:44:33.783Z,27.30
2022-08-01T16:47:07.603Z,27.30
2022-08-01T16:49:36.158Z,27.30
2022-08-01T16:52:02.969Z,27.30
2022-08-01T16:54:34.591Z,27.20
2022-08-01T16:57:08.610Z,27.20
2022-08-01T16:59:41.007Z,27.20
2022-08-01T17:02:08.937Z,27.20
2022-08-01T17:04:35.635Z,27.20
2022-08-01T17:07:05.223Z,27.20
2022-08-01T17:09:32.269Z,27.20
2022-08-01T17:12:01.155Z,27.20
2022-08-01T17:14:29.638Z,27.20
2022-08-01T17:16:56.305Z,27.20
2022-08-01T17:19:32.600Z,27.20
2022-08-01T17:22:02.366Z,27.20
2022-08-01T17:24:31.484Z,27.20
2022-08-01T17:27:00.617Z,27.20
2022-08-01T17:29:27.619Z,27.20
2022-08-01T17:31:54.402Z,27.10
2022-08-01T17:34:21.402Z,27.10
2022-08-01T17:36:48.074Z,27.10
2022-08-01T17:39:14.851Z,27.10
2022-08-01T17:41:42.134Z,27.00
2022-08-01T17:44:11.824Z,26.90
2022-08-01T17:46:40.871Z,26.90
2022-08-01T17:49:08.096Z,26.80
2022-08-01T17:51:36.013Z,26.80
2022-08-01T17:54:03.115Z,26.80
2022-08-01T17:56:31.762Z,26.80
2022-08-01T17:59:00.127Z,26.80
2022-08-01T18:01:28.949Z,26.70
2022-08-01T18:03:59.150Z,26.70
2022-08-01T18:06:29.870Z,26.70
2022-08-01T18:08:59.528Z,26.60
2022-08-01T18:11:37.558Z,26.50
2022-08-01T18:14:05.280Z,26.50
2022-08-01T18:16:32.161Z,26.50
2022-08-01T18:19:01.381Z,26.40
2022-08-01T18:21:32.101Z,26.40
2022-08-01T18:24:00.463Z,26.40
2022-08-01T18:26:29.958Z,26.30
2022-08-01T18:28:56.603Z,26.30
2022-08-01T18:31:24.854Z,26.20
2022-08-01T18:33:51.660Z,26.20
2022-08-01T18:36:32.811Z,26.20
2022-08-01T18:39:10.434Z,26.10
2022-08-01T18:41:38.951Z,26.10
2022-08-01T18:44:09.106Z,26.00
2022-08-01T18:46:37.539Z,26.00
2022-08-01T18:49:05.512Z,26.00
2022-08-01T18:51:32.373Z,26.00
2022-08-01T18:53:59.200Z,26.00
2022-08-01T18:56:30.760Z,26.00
2022-08-01T18:58:59.623Z,26.00
2022-08-01T19:01:28.531Z,25.90
2022-08-01T19:03:57.342Z,25.90
2022-08-01T19:06:24.766Z,25.90
2022-08-01T19:08:55.681Z,25.80
2022-08-01T19:11:26.171Z,25.80
2022-08-01T19:13:55.233Z,25.70
2022-08-01T19:16:24.246Z,25.60
2022-08-01T19:18:53.313Z,25.60
2022-08-01T19:21:21.331Z,25.50
2022-08-01T19:24:08.981Z,25.50
2022-08-01T19:26:36.870Z,25.50
2022-08-01T19:29:14.040Z,25.50
2022-08-01T19:31:48.480Z,25.40
2022-08-01T19:34:17.630Z,25.40
2022-08-01T19:36:53.636Z,25.40
2022-08-01T19:39:23.519Z,25.30
2022-08-01T19:41:53.604Z,25.20
2022-08-01T19:44:24.028Z,25.30
2022-08-01T19:46:54.691Z,25.20
2022-08-01T19:49:27.862Z,25.20
2022-08-01T19:52:05.749Z,25.20
2022-08-01T19:54:41.711Z,25.10
2022-08-01T19:57:10.632Z,25.00
2022-08-01T19:59:38.275Z,25.00
2022-08-01T20:02:05.880Z,24.80
2022-08-01T20:04:33.794Z,24.70
2022-08-01T20:07:00.827Z,24.60
2022-08-01T20:09:34.318Z,24.60
2022-08-01T20:12:06.369Z,24.50
2022-08-01T20:14:33.357Z,24.40
2022-08-01T20:17:02.408Z,24.30
2022-08-01T20:19:33.269Z,24.20
2022-08-01T20:22:05.960Z,24.20
2022-08-01T20:24:41.440Z,24.20
2022-08-01T20:27:10.960Z,24.20
2022-08-01T20:29:38.960Z,24.20
2022-08-01T20:32:06.110Z,24.20
2022-08-01T20:34:37.719Z,24.00
2022-08-01T20:37:12.514Z,23.90
2022-08-01T20:39:43.256Z,23.80
2022-08-01T20:42:11.092Z,23.80
2022-08-01T20:44:38.490Z,23.80
2022-08-01T20:47:09.884Z,23.80
2022-08-01T20:49:43.243Z,23.80
2022-08-01T20:52:12.999Z,23.80
2022-08-01T20:54:43.776Z,23.80
2022-08-01T20:57:23.841Z,23.70
2022-08-01T20:59:57.283Z,23.70
2022-08-01T21:02:48.767Z,23.70
2022-08-01T21:05:34.087Z,23.50
2022-08-01T21:08:03.987Z,23.50
2022-08-01T21:10:32.593Z,23.50
2022-08-01T21:13:10.613Z,23.40
2022-08-01T21:15:57.464Z,23.30
2022-08-01T21:18:58.237Z,23.30
2022-08-01T21:21:35.615Z,23.30
2022-08-01T21:24:09.017Z,23.10
2022-08-01T21:26:36.666Z,23.10
2022-08-01T21:29:08.718Z,23.00
2022-08-01T21:31:40.716Z,22.90
2022-08-01T21:34:08.877Z,22.90
2022-08-01T21:36:36.757Z,22.90
2022-08-01T21:39:09.262Z,23.00
2022-08-01T21:42:03.375Z,23.00
2022-08-01T21:44:28.768Z,23.00
2022-08-01T21:47:01.895Z,23.00
2022-08-01T21:49:31.306Z,22.90
2022-08-01T21:52:05.182Z,22.90
2022-08-01T21:54:50.985Z,22.70
2022-08-01T21:57:42.337Z,22.60
2022-08-01T22:00:11.551Z,22.60
2022-08-01T22:02:54.790Z,22.50
2022-08-01T22:05:49.853Z,22.50
2022-08-01T22:08:16.589Z,22.50
2022-08-01T22:10:43.489Z,22.50
2022-08-01T22:13:12.786Z,22.50
2022-08-01T22:15:45.180Z,22.50
2022-08-01T22:18:12.187Z,22.50
2022-08-01T22:20:39.252Z,22.50
2022-08-01T22:23:06.702Z,22.40
2022-08-01T22:25:36.210Z,22.50
2022-08-01T22:28:09.434Z,22.40
2022-08-01T22:30:41.741Z,22.40
2022-08-01T22:33:16.026Z,22.30
2022-08-01T22:35:49.725Z,22.30
2022-08-01T22:38:23.472Z,22.30
2022-08-01T22:41:02.350Z,22.20
2022-08-01T22:43:32.003Z,22.20
2022-08-01T22:46:17.356Z,22.20
2022-08-01T22:48:59.233Z,22.10
2022-08-01T22:51:38.446Z,22.10
2022-08-01T22:54:09.117Z,22.10
2022-08-01T22:56:39.507Z,22.10
2022-08-01T22:59:23.532Z,22.10
2022-08-01T23:01:51.594Z,22.10
2022-08-01T23:04:33.031Z,22.10
2022-08-01T23:07:05.095Z,22.00
2022-08-01T23:09:52.552Z,22.00
2022-08-01T23:12:26.117Z,21.90
2022-08-01T23:15:03.379Z,21.80
2022-08-01T23:17:32.907Z,21.70
2022-08-01T23:20:08.656Z,21.70
2022-08-01T23:22:37.015Z,21.70
2022-08-01T23:25:07.619Z,21.60
2022-08-01T23:28:04.118Z,21.60
2022-08-01T23:30:32.481Z,21.50
2022-08-01T23:33:04.137Z,21.50
2022-08-01T23:35:35.523Z,21.50
2022-08-01T23:38:10.012Z,21.40
2022-08-01T23:40:37.639Z,21.40
2022-08-01T23:43:16.577Z,21.30
2022-08-01T23:46:04.142Z,21.20
2022-08-01T23:48:34.777Z,21.20
2022-08-01T23:51:02.293Z,21.10
2022-08-01T23:53:30.666Z,21.10
2022-08-01T23:56:02.834Z,21.10
2022-08-01T23:58:32.791Z,21.00
